sensor_id;sensor_type;location;lat;lon;timestamp;P1;durP1;ratioP1;P2;durP2;ratioP2
5945;SDS011;2998;48.206;16.394;2023-05-10T00:01:38;10.87;;;7.90;;
5945;SDS011;2998;48.206;16.394;2023-05-10T00:08:27;10.70;;;8.60;;
5945;SDS011;2998;48.206;16.394;2023-05-10T00:10:56;12.60;;;8.60;;
5945;SDS011;2998;48.206;16.394;2023-05-10T00:17:51;12.70;;;9.57;;
5945;SDS011;2998;48.206;16.394;2023-05-10T00:20:20;9.20;;;8.30;;
5945;SDS011;2998;48.206;16.394;2023-05-10T00:22:50;9.43;;;8.10;;
5945;SDS011;2998;48.206;16.394;2023-05-10T00:29:32;7.97;;;7.10;;
5945;SDS011;2998;48.206;16.394;2023-05-10T00:32:01;6.90;;;6.20;;
5945;SDS011;2998;48.206;16.394;2023-05-10T00:38:36;6.83;;;6.10;;
5945;SDS011;2998;48.206;16.394;2023-05-10T00:41:06;7.43;;;6.60;;
5945;SDS011;2998;48.206;16.394;2023-05-10T00:47:55;6.40;;;5.87;;
5945;SDS011;2998;48.206;16.394;2023-05-10T00:50:24;8.87;;;6.70;;
5945;SDS011;2998;48.206;16.394;2023-05-10T00:52:54;6.23;;;5.77;;
5945;SDS011;2998;48.206;16.394;2023-05-10T00:59:50;5.83;;;5.30;;
5945;SDS011;2998;48.206;16.394;2023-05-10T01:02:19;6.13;;;5.63;;
5945;SDS011;2998;48.206;16.394;2023-05-10T01:09:08;6.10;;;5.60;;
5945;SDS011;2998;48.206;16.394;2023-05-10T01:11:38;6.60;;;5.93;;
5945;SDS011;2998;48.206;16.394;2023-05-10T01:18:33;6.70;;;6.10;;
5945;SDS011;2998;48.206;16.394;2023-05-10T01:21:08;6.17;;;5.67;;
5945;SDS011;2998;48.206;16.394;2023-05-10T01:23:57;6.60;;;6.00;;
5945;SDS011;2998;48.206;16.394;2023-05-10T01:26:56;6.23;;;5.73;;
5945;SDS011;2998;48.206;16.394;2023-05-10T01:34:05;5.37;;;5.07;;
5945;SDS011;2998;48.206;16.394;2023-05-10T01:36:38;6.13;;;5.63;;
5945;SDS011;2998;48.206;16.394;2023-05-10T01:43:37;28.30;;;13.83;;
5945;SDS011;2998;48.206;16.394;2023-05-10T01:50:29;8.80;;;6.30;;
5945;SDS011;2998;48.206;16.394;2023-05-10T01:52:59;7.63;;;6.93;;
5945;SDS011;2998;48.206;16.394;2023-05-10T01:59:43;5.80;;;5.30;;
5945;SDS011;2998;48.206;16.394;2023-05-10T02:02:14;5.60;;;5.30;;
5945;SDS011;2998;48.206;16.394;2023-05-10T02:08:57;6.13;;;5.20;;
5945;SDS011;2998;48.206;16.394;2023-05-10T02:15:45;5.30;;;4.80;;
5945;SDS011;2998;48.206;16.394;2023-05-10T02:18:15;6.10;;;5.60;;
5945;SDS011;2998;48.206;16.394;2023-05-10T02:25:05;19.30;;;10.20;;
5945;SDS011;2998;48.206;16.394;2023-05-10T02:27:36;7.77;;;5.13;;
5945;SDS011;2998;48.206;16.394;2023-05-10T02:30:06;6.93;;;6.10;;
5945;SDS011;2998;48.206;16.394;2023-05-10T02:34:01;4.90;;;4.53;;
5945;SDS011;2998;48.206;16.394;2023-05-10T02:40:44;5.60;;;5.10;;
5945;SDS011;2998;48.206;16.394;2023-05-10T02:43:14;5.67;;;5.27;;
5945;SDS011;2998;48.206;16.394;2023-05-10T02:49:56;5.77;;;5.27;;
5945;SDS011;2998;48.206;16.394;2023-05-10T02:52:27;5.57;;;5.17;;
5945;SDS011;2998;48.206;16.394;2023-05-10T02:55:00;5.77;;;5.37;;
5945;SDS011;2998;48.206;16.394;2023-05-10T03:01:50;5.77;;;5.37;;
5945;SDS011;2998;48.206;16.394;2023-05-10T03:04:20;5.27;;;4.77;;
5945;SDS011;2998;48.206;16.394;2023-05-10T03:11:14;4.87;;;4.50;;
5945;SDS011;2998;48.206;16.394;2023-05-10T03:13:54;4.87;;;4.57;;
5945;SDS011;2998;48.206;16.394;2023-05-10T03:20:57;6.63;;;4.40;;
5945;SDS011;2998;48.206;16.394;2023-05-10T03:23:29;5.60;;;5.07;;
5945;SDS011;2998;48.206;16.394;2023-05-10T03:26:02;5.33;;;4.90;;
5945;SDS011;2998;48.206;16.394;2023-05-10T03:28:33;6.80;;;5.93;;
5945;SDS011;2998;48.206;16.394;2023-05-10T03:31:03;5.70;;;5.20;;
5945;SDS011;2998;48.206;16.394;2023-05-10T03:33:33;4.80;;;4.50;;
5945;SDS011;2998;48.206;16.394;2023-05-10T03:36:04;9.13;;;6.50;;
5945;SDS011;2998;48.206;16.394;2023-05-10T03:38:33;7.03;;;6.30;;
5945;SDS011;2998;48.206;16.394;2023-05-10T03:41:02;6.17;;;5.67;;
5945;SDS011;2998;48.206;16.394;2023-05-10T03:43:32;5.40;;;5.00;;
5945;SDS011;2998;48.206;16.394;2023-05-10T03:46:02;5.40;;;4.93;;
5945;SDS011;2998;48.206;16.394;2023-05-10T03:52:46;4.83;;;4.47;;
5945;SDS011;2998;48.206;16.394;2023-05-10T03:55:15;5.40;;;5.00;;
5945;SDS011;2998;48.206;16.394;2023-05-10T04:02:12;5.27;;;4.87;;
5945;SDS011;2998;48.206;16.394;2023-05-10T04:04:41;5.13;;;4.83;;
5945;SDS011;2998;48.206;16.394;2023-05-10T04:11:31;4.97;;;4.47;;
5945;SDS011;2998;48.206;16.394;2023-05-10T04:14:00;5.87;;;5.47;;
5945;SDS011;2998;48.206;16.394;2023-05-10T04:16:30;4.40;;;4.20;;
5945;SDS011;2998;48.206;16.394;2023-05-10T04:18:59;5.60;;;5.20;;
5945;SDS011;2998;48.206;16.394;2023-05-10T04:21:29;7.70;;;4.60;;
5945;SDS011;2998;48.206;16.394;2023-05-10T04:23:59;4.60;;;4.30;;
5945;SDS011;2998;48.206;16.394;2023-05-10T04:26:28;26.23;;;11.33;;
5945;SDS011;2998;48.206;16.394;2023-05-10T04:33:20;5.80;;;5.30;;
5945;SDS011;2998;48.206;16.394;2023-05-10T04:35:49;4.37;;;4.17;;
5945;SDS011;2998;48.206;16.394;2023-05-10T04:42:36;4.97;;;4.57;;
5945;SDS011;2998;48.206;16.394;2023-05-10T04:45:08;4.13;;;3.77;;
5945;SDS011;2998;48.206;16.394;2023-05-10T04:51:59;4.60;;;4.30;;
5945;SDS011;2998;48.206;16.394;2023-05-10T04:58:56;7.17;;;5.07;;
5945;SDS011;2998;48.206;16.394;2023-05-10T05:01:25;4.90;;;4.60;;
5945;SDS011;2998;48.206;16.394;2023-05-10T05:08:08;4.60;;;4.20;;
5945;SDS011;2998;48.206;16.394;2023-05-10T05:10:38;5.23;;;4.80;;
5945;SDS011;2998;48.206;16.394;2023-05-10T05:17:26;7.70;;;4.90;;
5945;SDS011;2998;48.206;16.394;2023-05-10T05:24:15;18.50;;;6.87;;
5945;SDS011;2998;48.206;16.394;2023-05-10T05:26:45;11.73;;;6.10;;
5945;SDS011;2998;48.206;16.394;2023-05-10T05:33:27;8.60;;;6.30;;
5945;SDS011;2998;48.206;16.394;2023-05-10T05:35:56;10.80;;;6.00;;
5945;SDS011;2998;48.206;16.394;2023-05-10T05:42:45;7.17;;;5.40;;
5945;SDS011;2998;48.206;16.394;2023-05-10T05:49:26;7.07;;;6.20;;
5945;SDS011;2998;48.206;16.394;2023-05-10T05:51:58;7.90;;;5.80;;
5945;SDS011;2998;48.206;16.394;2023-05-10T05:58:48;8.80;;;5.80;;
5945;SDS011;2998;48.206;16.394;2023-05-10T06:01:18;57.50;;;30.63;;
5945;SDS011;2998;48.206;16.394;2023-05-10T06:03:48;9.63;;;7.13;;
5945;SDS011;2998;48.206;16.394;2023-05-10T06:06:19;8.03;;;5.40;;
5945;SDS011;2998;48.206;16.394;2023-05-10T06:08:48;9.13;;;6.10;;
5945;SDS011;2998;48.206;16.394;2023-05-10T06:11:18;7.10;;;5.33;;
5945;SDS011;2998;48.206;16.394;2023-05-10T06:13:53;8.40;;;6.43;;
5945;SDS011;2998;48.206;16.394;2023-05-10T06:16:25;6.37;;;5.83;;
5945;SDS011;2998;48.206;16.394;2023-05-10T06:18:57;6.57;;;5.83;;
5945;SDS011;2998;48.206;16.394;2023-05-10T06:21:34;9.93;;;4.73;;
5945;SDS011;2998;48.206;16.394;2023-05-10T06:24:05;5.53;;;4.97;;
5945;SDS011;2998;48.206;16.394;2023-05-10T06:26:35;6.40;;;5.80;;
5945;SDS011;2998;48.206;16.394;2023-05-10T06:29:07;9.53;;;5.57;;
5945;SDS011;2998;48.206;16.394;2023-05-10T06:31:36;9.17;;;5.83;;
5945;SDS011;2998;48.206;16.394;2023-05-10T06:34:06;8.90;;;5.97;;
5945;SDS011;2998;48.206;16.394;2023-05-10T06:36:36;5.43;;;4.90;;
5945;SDS011;2998;48.206;16.394;2023-05-10T06:39:05;8.60;;;5.20;;
5945;SDS011;2998;48.206;16.394;2023-05-10T06:41:34;7.67;;;5.20;;
5945;SDS011;2998;48.206;16.394;2023-05-10T06:44:04;6.80;;;4.80;;
5945;SDS011;2998;48.206;16.394;2023-05-10T06:46:34;5.23;;;4.80;;
5945;SDS011;2998;48.206;16.394;2023-05-10T06:49:04;4.77;;;4.20;;
5945;SDS011;2998;48.206;16.394;2023-05-10T06:55:39;4.97;;;4.57;;
5945;SDS011;2998;48.206;16.394;2023-05-10T06:58:08;6.57;;;5.20;;
5945;SDS011;2998;48.206;16.394;2023-05-10T07:09:28;40.37;;;22.47;;
5945;SDS011;2998;48.206;16.394;2023-05-10T07:16:16;8.80;;;4.20;;
5945;SDS011;2998;48.206;16.394;2023-05-10T07:18:45;4.00;;;3.73;;
5945;SDS011;2998;48.206;16.394;2023-05-10T07:25:46;5.80;;;5.20;;
5945;SDS011;2998;48.206;16.394;2023-05-10T07:28:16;28.00;;;18.13;;
5945;SDS011;2998;48.206;16.394;2023-05-10T07:34:58;5.37;;;4.80;;
5945;SDS011;2998;48.206;16.394;2023-05-10T07:37:27;7.10;;;6.10;;
5945;SDS011;2998;48.206;16.394;2023-05-10T07:39:57;4.77;;;4.37;;
5945;SDS011;2998;48.206;16.394;2023-05-10T07:42:27;6.00;;;5.50;;
5945;SDS011;2998;48.206;16.394;2023-05-10T07:44:56;5.57;;;4.90;;
5945;SDS011;2998;48.206;16.394;2023-05-10T07:51:38;6.63;;;5.23;;
5945;SDS011;2998;48.206;16.394;2023-05-10T07:54:07;5.83;;;5.33;;
5945;SDS011;2998;48.206;16.394;2023-05-10T08:00:49;6.80;;;4.50;;
5945;SDS011;2998;48.206;16.394;2023-05-10T08:03:19;5.13;;;4.30;;
5945;SDS011;2998;48.206;16.394;2023-05-10T08:10:08;3.90;;;3.60;;
5945;SDS011;2998;48.206;16.394;2023-05-10T08:12:39;3.30;;;3.10;;
5945;SDS011;2998;48.206;16.394;2023-05-10T08:15:09;9.60;;;8.63;;
5945;SDS011;2998;48.206;16.394;2023-05-10T08:21:52;3.83;;;3.53;;
5945;SDS011;2998;48.206;16.394;2023-05-10T08:24:22;3.43;;;3.13;;
5945;SDS011;2998;48.206;16.394;2023-05-10T08:31:05;2.80;;;2.70;;
5945;SDS011;2998;48.206;16.394;2023-05-10T08:33:35;2.47;;;2.37;;
5945;SDS011;2998;48.206;16.394;2023-05-10T08:36:04;2.60;;;2.40;;
5945;SDS011;2998;48.206;16.394;2023-05-10T08:39:11;4.90;;;3.50;;
5945;SDS011;2998;48.206;16.394;2023-05-10T08:46:05;3.30;;;3.00;;
5945;SDS011;2998;48.206;16.394;2023-05-10T08:48:36;3.80;;;3.40;;
5945;SDS011;2998;48.206;16.394;2023-05-10T08:51:06;3.23;;;3.03;;
5945;SDS011;2998;48.206;16.394;2023-05-10T08:53:37;3.30;;;2.70;;
5945;SDS011;2998;48.206;16.394;2023-05-10T08:56:08;3.33;;;2.60;;
5945;SDS011;2998;48.206;16.394;2023-05-10T08:58:37;2.97;;;2.77;;
5945;SDS011;2998;48.206;16.394;2023-05-10T09:01:06;3.73;;;2.73;;
5945;SDS011;2998;48.206;16.394;2023-05-10T09:03:37;3.33;;;2.83;;
5945;SDS011;2998;48.206;16.394;2023-05-10T09:06:07;4.03;;;2.57;;
5945;SDS011;2998;48.206;16.394;2023-05-10T09:08:36;3.87;;;2.37;;
5945;SDS011;2998;48.206;16.394;2023-05-10T09:11:06;2.70;;;2.53;;
5945;SDS011;2998;48.206;16.394;2023-05-10T09:13:37;2.30;;;2.10;;
5945;SDS011;2998;48.206;16.394;2023-05-10T09:16:06;2.70;;;2.50;;
5945;SDS011;2998;48.206;16.394;2023-05-10T09:18:47;3.03;;;2.63;;
5945;SDS011;2998;48.206;16.394;2023-05-10T09:21:18;2.23;;;2.13;;
5945;SDS011;2998;48.206;16.394;2023-05-10T09:23:48;2.27;;;2.17;;
5945;SDS011;2998;48.206;16.394;2023-05-10T09:26:25;2.97;;;2.87;;
5945;SDS011;2998;48.206;16.394;2023-05-10T09:28:57;2.60;;;2.47;;
5945;SDS011;2998;48.206;16.394;2023-05-10T09:34:18;2.13;;;2.03;;
5945;SDS011;2998;48.206;16.394;2023-05-10T09:36:52;2.10;;;1.90;;
5945;SDS011;2998;48.206;16.394;2023-05-10T09:39:29;5.00;;;2.80;;
5945;SDS011;2998;48.206;16.394;2023-05-10T09:42:03;3.50;;;2.43;;
5945;SDS011;2998;48.206;16.394;2023-05-10T09:44:47;5.33;;;3.07;;
5945;SDS011;2998;48.206;16.394;2023-05-10T09:51:36;3.20;;;2.00;;
5945;SDS011;2998;48.206;16.394;2023-05-10T09:58:13;2.63;;;2.43;;
5945;SDS011;2998;48.206;16.394;2023-05-10T10:00:43;3.10;;;2.10;;
5945;SDS011;2998;48.206;16.394;2023-05-10T10:12:17;2.57;;;2.37;;
5945;SDS011;2998;48.206;16.394;2023-05-10T10:14:49;2.87;;;2.67;;
5945;SDS011;2998;48.206;16.394;2023-05-10T10:17:19;2.30;;;2.20;;
5945;SDS011;2998;48.206;16.394;2023-05-10T10:19:49;2.10;;;2.00;;
5945;SDS011;2998;48.206;16.394;2023-05-10T10:22:19;4.00;;;2.47;;
5945;SDS011;2998;48.206;16.394;2023-05-10T10:29:09;2.30;;;2.20;;
5945;SDS011;2998;48.206;16.394;2023-05-10T10:31:47;2.93;;;2.00;;
5945;SDS011;2998;48.206;16.394;2023-05-10T10:39:00;4.20;;;1.93;;
5945;SDS011;2998;48.206;16.394;2023-05-10T10:41:31;2.40;;;2.00;;
5945;SDS011;2998;48.206;16.394;2023-05-10T10:48:22;2.40;;;2.20;;
5945;SDS011;2998;48.206;16.394;2023-05-10T10:50:55;2.63;;;2.30;;
5945;SDS011;2998;48.206;16.394;2023-05-10T10:53:26;1.97;;;1.87;;
5945;SDS011;2998;48.206;16.394;2023-05-10T10:56:02;2.03;;;1.93;;
5945;SDS011;2998;48.206;16.394;2023-05-10T11:02:43;2.30;;;2.20;;
5945;SDS011;2998;48.206;16.394;2023-05-10T11:14:11;2.90;;;2.70;;
5945;SDS011;2998;48.206;16.394;2023-05-10T11:16:41;3.07;;;2.87;;
5945;SDS011;2998;48.206;16.394;2023-05-10T11:23:47;3.53;;;3.23;;
5945;SDS011;2998;48.206;16.394;2023-05-10T11:26:18;2.90;;;2.70;;
5945;SDS011;2998;48.206;16.394;2023-05-10T11:28:50;3.67;;;3.37;;
5945;SDS011;2998;48.206;16.394;2023-05-10T11:31:22;3.07;;;2.87;;
5945;SDS011;2998;48.206;16.394;2023-05-10T11:33:54;2.93;;;2.80;;
5945;SDS011;2998;48.206;16.394;2023-05-10T11:36:26;2.40;;;2.20;;
5945;SDS011;2998;48.206;16.394;2023-05-10T11:38:56;2.70;;;2.50;;
5945;SDS011;2998;48.206;16.394;2023-05-10T11:41:27;4.90;;;2.80;;
5945;SDS011;2998;48.206;16.394;2023-05-10T11:43:57;3.10;;;2.90;;
5945;SDS011;2998;48.206;16.394;2023-05-10T11:46:29;2.70;;;2.50;;
5945;SDS011;2998;48.206;16.394;2023-05-10T11:48:59;2.87;;;2.67;;
5945;SDS011;2998;48.206;16.394;2023-05-10T11:51:33;3.10;;;2.40;;
5945;SDS011;2998;48.206;16.394;2023-05-10T11:54:05;2.40;;;2.30;;
5945;SDS011;2998;48.206;16.394;2023-05-10T11:56:37;5.10;;;2.67;;
5945;SDS011;2998;48.206;16.394;2023-05-10T11:59:07;3.13;;;2.93;;
5945;SDS011;2998;48.206;16.394;2023-05-10T12:01:38;2.30;;;2.20;;
5945;SDS011;2998;48.206;16.394;2023-05-10T12:04:07;2.97;;;2.87;;
5945;SDS011;2998;48.206;16.394;2023-05-10T12:15:39;6.23;;;5.73;;
5945;SDS011;2998;48.206;16.394;2023-05-10T12:18:10;2.67;;;2.57;;
5945;SDS011;2998;48.206;16.394;2023-05-10T12:24:58;6.20;;;3.20;;
5945;SDS011;2998;48.206;16.394;2023-05-10T12:27:31;4.03;;;2.23;;
5945;SDS011;2998;48.206;16.394;2023-05-10T12:30:00;2.30;;;2.20;;
5945;SDS011;2998;48.206;16.394;2023-05-10T12:32:37;2.70;;;2.60;;
5945;SDS011;2998;48.206;16.394;2023-05-10T12:35:09;3.60;;;2.50;;
5945;SDS011;2998;48.206;16.394;2023-05-10T12:37:38;4.23;;;2.80;;
5945;SDS011;2998;48.206;16.394;2023-05-10T12:40:08;7.93;;;2.63;;
5945;SDS011;2998;48.206;16.394;2023-05-10T12:42:39;4.27;;;2.70;;
5945;SDS011;2998;48.206;16.394;2023-05-10T12:45:08;2.77;;;2.67;;
5945;SDS011;2998;48.206;16.394;2023-05-10T12:47:38;2.90;;;2.70;;
5945;SDS011;2998;48.206;16.394;2023-05-10T12:50:11;5.57;;;2.83;;
5945;SDS011;2998;48.206;16.394;2023-05-10T12:52:40;3.20;;;3.00;;
5945;SDS011;2998;48.206;16.394;2023-05-10T12:55:10;3.13;;;2.93;;
5945;SDS011;2998;48.206;16.394;2023-05-10T12:57:39;2.50;;;2.40;;
5945;SDS011;2998;48.206;16.394;2023-05-10T13:00:09;3.57;;;3.27;;
5945;SDS011;2998;48.206;16.394;2023-05-10T13:02:39;2.93;;;2.83;;
5945;SDS011;2998;48.206;16.394;2023-05-10T13:05:09;3.37;;;3.07;;
5945;SDS011;2998;48.206;16.394;2023-05-10T13:07:40;3.50;;;2.63;;
5945;SDS011;2998;48.206;16.394;2023-05-10T13:10:11;2.70;;;2.50;;
5945;SDS011;2998;48.206;16.394;2023-05-10T13:16:59;3.00;;;2.80;;
5945;SDS011;2998;48.206;16.394;2023-05-10T13:19:29;2.20;;;2.10;;
5945;SDS011;2998;48.206;16.394;2023-05-10T13:26:17;2.30;;;2.20;;
5945;SDS011;2998;48.206;16.394;2023-05-10T13:28:47;2.57;;;2.37;;
5945;SDS011;2998;48.206;16.394;2023-05-10T13:35:43;4.27;;;2.53;;
5945;SDS011;2998;48.206;16.394;2023-05-10T13:42:34;7.63;;;3.03;;
5945;SDS011;2998;48.206;16.394;2023-05-10T13:45:04;5.10;;;2.80;;
5945;SDS011;2998;48.206;16.394;2023-05-10T13:51:52;3.43;;;3.13;;
5945;SDS011;2998;48.206;16.394;2023-05-10T13:54:21;2.80;;;2.70;;
5945;SDS011;2998;48.206;16.394;2023-05-10T14:01:12;6.60;;;3.50;;
5945;SDS011;2998;48.206;16.394;2023-05-10T14:08:00;4.90;;;4.20;;
5945;SDS011;2998;48.206;16.394;2023-05-10T14:10:30;4.80;;;3.30;;
5945;SDS011;2998;48.206;16.394;2023-05-10T14:17:19;3.03;;;2.93;;
5945;SDS011;2998;48.206;16.394;2023-05-10T14:19:49;3.10;;;2.57;;
5945;SDS011;2998;48.206;16.394;2023-05-10T14:22:19;3.53;;;3.33;;
5945;SDS011;2998;48.206;16.394;2023-05-10T14:25:27;3.47;;;3.17;;
5945;SDS011;2998;48.206;16.394;2023-05-10T14:32:03;4.57;;;2.43;;
5945;SDS011;2998;48.206;16.394;2023-05-10T14:34:34;2.80;;;2.70;;
5945;SDS011;2998;48.206;16.394;2023-05-10T14:37:03;3.27;;;2.97;;
5945;SDS011;2998;48.206;16.394;2023-05-10T14:39:33;3.40;;;3.00;;
5945;SDS011;2998;48.206;16.394;2023-05-10T14:42:02;3.23;;;3.03;;
5945;SDS011;2998;48.206;16.394;2023-05-10T14:48:49;6.37;;;3.23;;
5945;SDS011;2998;48.206;16.394;2023-05-10T14:51:20;6.63;;;4.37;;
5945;SDS011;2998;48.206;16.394;2023-05-10T14:58:08;3.97;;;3.70;;
5945;SDS011;2998;48.206;16.394;2023-05-10T15:00:37;3.77;;;3.50;;
5945;SDS011;2998;48.206;16.394;2023-05-10T15:07:28;4.40;;;4.07;;
5945;SDS011;2998;48.206;16.394;2023-05-10T15:19:01;3.83;;;3.63;;
5945;SDS011;2998;48.206;16.394;2023-05-10T15:21:30;4.20;;;3.97;;
5945;SDS011;2998;48.206;16.394;2023-05-10T15:28:19;7.60;;;4.53;;
5945;SDS011;2998;48.206;16.394;2023-05-10T15:30:49;5.67;;;4.30;;
5945;SDS011;2998;48.206;16.394;2023-05-10T15:37:44;6.07;;;5.47;;
5945;SDS011;2998;48.206;16.394;2023-05-10T15:40:14;5.70;;;5.07;;
5945;SDS011;2998;48.206;16.394;2023-05-10T15:47:05;5.77;;;5.27;;
5945;SDS011;2998;48.206;16.394;2023-05-10T15:53:40;5.37;;;5.00;;
5945;SDS011;2998;48.206;16.394;2023-05-10T15:56:26;5.57;;;5.17;;
5945;SDS011;2998;48.206;16.394;2023-05-10T16:03:15;5.67;;;4.50;;
5945;SDS011;2998;48.206;16.394;2023-05-10T16:05:44;5.73;;;5.30;;
5945;SDS011;2998;48.206;16.394;2023-05-10T16:08:15;4.10;;;3.80;;
5945;SDS011;2998;48.206;16.394;2023-05-10T16:10:44;3.40;;;3.10;;
5945;SDS011;2998;48.206;16.394;2023-05-10T16:13:13;4.60;;;4.07;;
5945;SDS011;2998;48.206;16.394;2023-05-10T16:20:05;3.53;;;3.33;;
5945;SDS011;2998;48.206;16.394;2023-05-10T16:22:35;4.17;;;3.97;;
5945;SDS011;2998;48.206;16.394;2023-05-10T16:29:29;4.77;;;4.40;;
5945;SDS011;2998;48.206;16.394;2023-05-10T16:31:59;4.97;;;4.60;;
5945;SDS011;2998;48.206;16.394;2023-05-10T16:34:28;4.87;;;4.50;;
5945;SDS011;2998;48.206;16.394;2023-05-10T16:36:59;4.13;;;3.93;;
5945;SDS011;2998;48.206;16.394;2023-05-10T16:43:35;3.70;;;3.50;;
5945;SDS011;2998;48.206;16.394;2023-05-10T16:50:23;3.50;;;3.30;;
5945;SDS011;2998;48.206;16.394;2023-05-10T16:52:54;4.30;;;4.00;;
5945;SDS011;2998;48.206;16.394;2023-05-10T16:59:42;18.80;;;11.70;;
5945;SDS011;2998;48.206;16.394;2023-05-10T17:06:24;4.03;;;3.83;;
5945;SDS011;2998;48.206;16.394;2023-05-10T17:08:55;6.77;;;3.80;;
5945;SDS011;2998;48.206;16.394;2023-05-10T17:20:13;4.17;;;3.97;;
5945;SDS011;2998;48.206;16.394;2023-05-10T17:22:43;5.43;;;5.07;;
5945;SDS011;2998;48.206;16.394;2023-05-10T17:25:14;5.37;;;4.97;;
5945;SDS011;2998;48.206;16.394;2023-05-10T17:27:43;4.13;;;3.93;;
5945;SDS011;2998;48.206;16.394;2023-05-10T17:30:13;4.47;;;4.17;;
5945;SDS011;2998;48.206;16.394;2023-05-10T17:32:42;4.20;;;3.80;;
5945;SDS011;2998;48.206;16.394;2023-05-10T17:35:12;3.93;;;3.63;;
5945;SDS011;2998;48.206;16.394;2023-05-10T17:37:41;4.57;;;4.17;;
5945;SDS011;2998;48.206;16.394;2023-05-10T17:40:11;4.77;;;4.50;;
5945;SDS011;2998;48.206;16.394;2023-05-10T17:42:42;4.13;;;3.93;;
5945;SDS011;2998;48.206;16.394;2023-05-10T17:45:11;4.63;;;4.33;;
5945;SDS011;2998;48.206;16.394;2023-05-10T17:47:41;4.10;;;3.80;;
5945;SDS011;2998;48.206;16.394;2023-05-10T17:50:13;3.63;;;3.43;;
5945;SDS011;2998;48.206;16.394;2023-05-10T17:52:44;3.90;;;3.70;;
5945;SDS011;2998;48.206;16.394;2023-05-10T17:59:38;4.17;;;3.87;;
5945;SDS011;2998;48.206;16.394;2023-05-10T18:06:19;10.03;;;6.07;;
5945;SDS011;2998;48.206;16.394;2023-05-10T18:08:49;10.30;;;7.40;;
5945;SDS011;2998;48.206;16.394;2023-05-10T18:15:37;11.50;;;7.90;;
5945;SDS011;2998;48.206;16.394;2023-05-10T18:22:25;5.10;;;4.70;;
5945;SDS011;2998;48.206;16.394;2023-05-10T18:24:54;5.70;;;5.30;;
5945;SDS011;2998;48.206;16.394;2023-05-10T18:31:45;5.20;;;4.87;;
5945;SDS011;2998;48.206;16.394;2023-05-10T18:34:14;5.53;;;5.17;;
5945;SDS011;2998;48.206;16.394;2023-05-10T18:36:43;4.87;;;4.67;;
5945;SDS011;2998;48.206;16.394;2023-05-10T18:39:13;6.60;;;6.10;;
5945;SDS011;2998;48.206;16.394;2023-05-10T18:41:44;5.97;;;5.53;;
5945;SDS011;2998;48.206;16.394;2023-05-10T18:44:13;6.93;;;6.40;;
5945;SDS011;2998;48.206;16.394;2023-05-10T18:46:42;14.13;;;9.00;;
5945;SDS011;2998;48.206;16.394;2023-05-10T18:49:13;9.23;;;8.37;;
5945;SDS011;2998;48.206;16.394;2023-05-10T18:51:42;8.47;;;7.83;;
5945;SDS011;2998;48.206;16.394;2023-05-10T18:54:13;8.37;;;7.77;;
5945;SDS011;2998;48.206;16.394;2023-05-10T18:56:43;18.80;;;11.70;;
5945;SDS011;2998;48.206;16.394;2023-05-10T18:59:12;18.30;;;13.33;;
5945;SDS011;2998;48.206;16.394;2023-05-10T19:01:41;7.80;;;7.00;;
5945;SDS011;2998;48.206;16.394;2023-05-10T19:08:23;7.20;;;6.60;;
5945;SDS011;2998;48.206;16.394;2023-05-10T19:10:53;8.17;;;7.20;;
5945;SDS011;2998;48.206;16.394;2023-05-10T19:22:27;8.00;;;7.40;;
5945;SDS011;2998;48.206;16.394;2023-05-10T19:25:19;8.83;;;8.00;;
5945;SDS011;2998;48.206;16.394;2023-05-10T19:31:57;7.60;;;7.00;;
5945;SDS011;2998;48.206;16.394;2023-05-10T19:38:45;8.00;;;7.20;;
5945;SDS011;2998;48.206;16.394;2023-05-10T19:41:16;7.77;;;7.07;;
5945;SDS011;2998;48.206;16.394;2023-05-10T19:48:05;8.40;;;7.77;;
5945;SDS011;2998;48.206;16.394;2023-05-10T19:54:59;7.97;;;7.33;;
5945;SDS011;2998;48.206;16.394;2023-05-10T19:57:31;8.23;;;7.53;;
5945;SDS011;2998;48.206;16.394;2023-05-10T20:04:13;10.63;;;8.77;;
5945;SDS011;2998;48.206;16.394;2023-05-10T20:06:44;10.00;;;9.07;;
5945;SDS011;2998;48.206;16.394;2023-05-10T20:13:34;9.37;;;8.57;;
5945;SDS011;2998;48.206;16.394;2023-05-10T20:16:04;10.50;;;7.90;;
5945;SDS011;2998;48.206;16.394;2023-05-10T20:18:33;10.10;;;9.30;;
5945;SDS011;2998;48.206;16.394;2023-05-10T20:21:05;8.40;;;7.60;;
5945;SDS011;2998;48.206;16.394;2023-05-10T20:23:34;8.47;;;7.83;;
5945;SDS011;2998;48.206;16.394;2023-05-10T20:26:04;9.10;;;8.40;;
5945;SDS011;2998;48.206;16.394;2023-05-10T20:28:35;9.40;;;8.60;;
5945;SDS011;2998;48.206;16.394;2023-05-10T20:31:04;8.60;;;7.90;;
5945;SDS011;2998;48.206;16.394;2023-05-10T20:33:34;8.17;;;7.50;;
5945;SDS011;2998;48.206;16.394;2023-05-10T20:36:08;13.30;;;9.53;;
5945;SDS011;2998;48.206;16.394;2023-05-10T20:38:37;11.00;;;9.93;;
5945;SDS011;2998;48.206;16.394;2023-05-10T20:41:06;10.40;;;9.53;;
5945;SDS011;2998;48.206;16.394;2023-05-10T20:43:37;10.33;;;9.53;;
5945;SDS011;2998;48.206;16.394;2023-05-10T20:46:06;10.30;;;9.37;;
5945;SDS011;2998;48.206;16.394;2023-05-10T20:48:36;8.60;;;7.90;;
5945;SDS011;2998;48.206;16.394;2023-05-10T20:55:19;8.53;;;7.83;;
5945;SDS011;2998;48.206;16.394;2023-05-10T20:57:48;9.07;;;8.30;;
5945;SDS011;2998;48.206;16.394;2023-05-10T21:04:24;79.10;;;35.77;;
5945;SDS011;2998;48.206;16.394;2023-05-10T21:06:54;72.60;;;34.87;;
5945;SDS011;2998;48.206;16.394;2023-05-10T21:09:24;45.33;;;23.73;;
5945;SDS011;2998;48.206;16.394;2023-05-10T21:11:53;26.40;;;17.50;;
5945;SDS011;2998;48.206;16.394;2023-05-10T21:14:22;15.70;;;12.10;;
5945;SDS011;2998;48.206;16.394;2023-05-10T21:16:51;12.70;;;10.97;;
5945;SDS011;2998;48.206;16.394;2023-05-10T21:19:21;10.77;;;9.67;;
5945;SDS011;2998;48.206;16.394;2023-05-10T21:21:52;12.80;;;10.37;;
5945;SDS011;2998;48.206;16.394;2023-05-10T21:24:23;11.03;;;8.93;;
5945;SDS011;2998;48.206;16.394;2023-05-10T21:26:52;9.70;;;8.90;;
5945;SDS011;2998;48.206;16.394;2023-05-10T21:29:21;11.93;;;10.73;;
5945;SDS011;2998;48.206;16.394;2023-05-10T21:31:50;10.57;;;9.47;;
5945;SDS011;2998;48.206;16.394;2023-05-10T21:34:19;9.63;;;8.83;;
5945;SDS011;2998;48.206;16.394;2023-05-10T21:36:49;12.57;;;10.00;;
5945;SDS011;2998;48.206;16.394;2023-05-10T21:39:19;10.83;;;9.80;;
5945;SDS011;2998;48.206;16.394;2023-05-10T21:41:49;10.10;;;9.20;;
5945;SDS011;2998;48.206;16.394;2023-05-10T21:44:18;10.10;;;9.20;;
5945;SDS011;2998;48.206;16.394;2023-05-10T21:51:05;9.93;;;8.90;;
5945;SDS011;2998;48.206;16.394;2023-05-10T21:53:35;9.50;;;8.60;;
5945;SDS011;2998;48.206;16.394;2023-05-10T22:00:24;10.13;;;9.23;;
5945;SDS011;2998;48.206;16.394;2023-05-10T22:02:54;10.13;;;9.40;;
5945;SDS011;2998;48.206;16.394;2023-05-10T22:05:24;10.93;;;8.83;;
5945;SDS011;2998;48.206;16.394;2023-05-10T22:08:41;10.20;;;9.40;;
5945;SDS011;2998;48.206;16.394;2023-05-10T22:15:32;9.90;;;9.20;;
5945;SDS011;2998;48.206;16.394;2023-05-10T22:18:02;11.77;;;10.57;;
5945;SDS011;2998;48.206;16.394;2023-05-10T22:20:32;11.30;;;10.10;;
5945;SDS011;2998;48.206;16.394;2023-05-10T22:23:01;10.93;;;9.83;;
5945;SDS011;2998;48.206;16.394;2023-05-10T22:25:30;11.00;;;10.10;;
5945;SDS011;2998;48.206;16.394;2023-05-10T22:28:00;11.30;;;10.13;;
5945;SDS011;2998;48.206;16.394;2023-05-10T22:30:29;10.37;;;9.50;;
5945;SDS011;2998;48.206;16.394;2023-05-10T22:33:00;11.33;;;10.43;;
5945;SDS011;2998;48.206;16.394;2023-05-10T22:35:29;11.20;;;9.20;;
5945;SDS011;2998;48.206;16.394;2023-05-10T22:37:59;10.87;;;9.87;;
5945;SDS011;2998;48.206;16.394;2023-05-10T22:40:28;11.90;;;10.80;;
5945;SDS011;2998;48.206;16.394;2023-05-10T22:42:57;10.40;;;9.50;;
5945;SDS011;2998;48.206;16.394;2023-05-10T22:45:27;11.57;;;10.37;;
5945;SDS011;2998;48.206;16.394;2023-05-10T22:52:17;9.90;;;9.10;;
5945;SDS011;2998;48.206;16.394;2023-05-10T22:54:46;13.07;;;11.77;;
5945;SDS011;2998;48.206;16.394;2023-05-10T23:01:33;16.47;;;11.67;;
5945;SDS011;2998;48.206;16.394;2023-05-10T23:04:03;11.33;;;10.23;;
5945;SDS011;2998;48.206;16.394;2023-05-10T23:10:52;9.87;;;9.00;;
5945;SDS011;2998;48.206;16.394;2023-05-10T23:21:51;11.30;;;10.20;;
5945;SDS011;2998;48.206;16.394;2023-05-10T23:24:21;15.87;;;11.17;;